Time;durP1;ratioP1;P1;durP2;ratioP2;P2;SDS_P1;SDS_P2;PMS_P1;PMS_P2;Temp;Humidity;BMP_temperature;BMP_pressure;BME280_temperature;BME280_humidity;BME280_pressure;Samples;Min_cycle;Max_cycle;Signal;HPM_P1;HPM_P2
2021/03/22 00:01:48;;;;;;;29.95;6.50;;;5.70;99.90;;;;;;4984942;28;20121;-74
2021/03/22 00:04:14;;;;;;;26.23;6.22;;;5.70;99.90;;;;;;4982718;28;20074;-76
2021/03/22 00:06:40;;;;;;;28.67;5.75;;;5.60;99.90;;;;;;4983765;28;20193;-76
2021/03/22 00:09:07;;;;;;;24.15;6.35;;;5.60;99.90;;;;;;4984812;28;20126;-75
2021/03/22 00:11:33;;;;;;;35.33;6.55;;;5.60;99.90;;;;;;4982556;28;20045;-75
2021/03/22 00:14:00;;;;;;;30.52;5.90;;;5.50;99.90;;;;;;4982592;28;20491;-76
2021/03/22 00:16:26;;;;;;;27.60;5.93;;;5.60;99.90;;;;;;4981938;28;20070;-76
2021/03/22 00:18:53;;;;;;;23.95;6.22;;;5.50;99.90;;;;;;4985112;28;20062;-75
2021/03/22 00:21:20;;;;;;;24.25;6.35;;;5.60;99.90;;;;;;4982618;28;20065;-76
2021/03/22 00:23:47;;;;;;;23.52;6.18;;;5.50;99.90;;;;;;4982871;28;20133;-75
2021/03/22 00:26:13;;;;;;;29.77;6.70;;;5.60;99.90;;;;;;4983340;28;20058;-74
2021/03/22 00:28:39;;;;;;;29.55;5.95;;;5.50;99.90;;;;;;4984326;28;20139;-74
2021/03/22 00:31:08;;;;;;;28.27;6.05;;;5.50;99.90;;;;;;4979865;28;20057;-74
2021/03/22 00:33:35;;;;;;;21.75;5.60;;;5.50;99.90;;;;;;4981179;28;20074;-76
2021/03/22 00:36:03;;;;;;;24.80;6.05;;;5.60;99.90;;;;;;4984043;28;20562;-75
2021/03/22 00:38:29;;;;;;;22.25;6.70;;;5.50;99.90;;;;;;4982574;28;20047;-75
2021/03/22 00:40:56;;;;;;;31.85;7.15;;;5.50;99.90;;;;;;4993061;28;20127;-75
2021/03/22 00:43:23;;;;;;;24.98;5.90;;;5.50;99.90;;;;;;4992421;28;20157;-74
2021/03/22 00:45:49;;;;;;;34.75;5.78;;;5.50;99.90;;;;;;4993066;28;20054;-77
2021/03/22 00:48:16;;;;;;;26.70;6.82;;;5.50;99.90;;;;;;4992388;28;20058;-76
2021/03/22 00:50:44;;;;;;;23.77;5.50;;;5.50;99.90;;;;;;4993456;28;20455;-75
2021/03/22 00:53:13;;;;;;;19.48;5.88;;;5.50;99.90;;;;;;4993019;28;20408;-76
2021/03/22 00:55:40;;;;;;;26.75;5.85;;;5.50;99.90;;;;;;4993099;28;20057;-76
2021/03/22 00:58:06;;;;;;;23.83;5.90;;;5.50;99.90;;;;;;4992687;28;20042;-76
2021/03/22 01:00:35;;;;;;;24.80;5.63;;;5.50;99.90;;;;;;4992919;28;20475;-76
2021/03/22 01:03:03;;;;;;;26.60;5.93;;;5.50;99.90;;;;;;4993118;28;20129;-76
2021/03/22 01:05:30;;;;;;;22.88;6.60;;;5.50;99.90;;;;;;4993360;28;20447;-75
2021/03/22 01:07:56;;;;;;;26.27;6.90;;;5.50;99.90;;;;;;4992661;28;20101;-76
2021/03/22 01:10:30;;;;;;;28.33;6.25;;;5.40;99.90;;;;;;4992819;28;20160;-75
2021/03/22 01:12:57;;;;;;;28.13;6.63;;;5.40;99.90;;;;;;4992551;28;20517;-75
2021/03/22 01:15:24;;;;;;;37.58;5.97;;;5.40;99.90;;;;;;4992886;28;20133;-76
2021/03/22 01:17:51;;;;;;;26.40;5.82;;;5.40;99.90;;;;;;4992524;28;20090;-76
2021/03/22 01:20:22;;;;;;;32.30;6.07;;;5.40;99.90;;;;;;4992878;28;20098;-75
2021/03/22 01:22:49;;;;;;;32.85;6.10;;;5.40;99.90;;;;;;4992675;28;20139;-74
2021/03/22 01:25:15;;;;;;;29.15;5.85;;;5.40;99.90;;;;;;4992556;28;20085;-75
2021/03/22 01:27:42;;;;;;;27.95;5.80;;;5.40;99.90;;;;;;4992031;28;20436;-75
2021/03/22 01:30:16;;;;;;;28.98;5.93;;;5.40;99.90;;;;;;4992921;28;20134;-76
2021/03/22 01:32:42;;;;;;;23.90;5.78;;;5.40;99.90;;;;;;4992856;28;20043;-75
2021/03/22 01:35:10;;;;;;;27.42;6.28;;;5.40;99.90;;;;;;4992867;28;20086;-76
2021/03/22 01:37:37;;;;;;;24.60;6.85;;;5.40;99.90;;;;;;4992723;28;20562;-76
2021/03/22 01:40:07;;;;;;;34.15;6.65;;;5.40;99.90;;;;;;4992986;28;20072;-76
2021/03/22 01:42:48;;;;;;;26.90;6.20;;;5.40;99.90;;;;;;4992878;28;20078;-77
2021/03/22 01:45:14;;;;;;;21.60;6.00;;;5.30;99.90;;;;;;4992997;28;20552;-75
2021/03/22 01:47:41;;;;;;;31.40;6.70;;;5.30;99.90;;;;;;4993140;28;20423;-75
2021/03/22 01:50:10;;;;;;;23.75;5.28;;;5.30;99.90;;;;;;4993123;28;20476;-75
2021/03/22 01:52:40;;;;;;;24.77;5.63;;;5.20;99.90;;;;;;4993068;28;20057;-76
2021/03/22 01:55:09;;;;;;;23.00;5.80;;;5.20;99.90;;;;;;4993105;28;20141;-75
2021/03/22 01:57:38;;;;;;;25.10;6.18;;;5.20;99.90;;;;;;4992394;28;20141;-75
2021/03/22 02:00:21;;;;;;;23.25;5.55;;;5.20;99.90;;;;;;4992592;28;20141;-76
2021/03/22 02:02:52;;;;;;;25.38;5.50;;;5.30;99.90;;;;;;4992862;28;20513;-75
2021/03/22 02:05:21;;;;;;;34.97;6.22;;;5.30;99.90;;;;;;4992772;28;20141;-76
2021/03/22 02:07:52;;;;;;;28.42;5.68;;;5.30;99.90;;;;;;4992558;28;20050;-75
2021/03/22 02:10:19;;;;;;;22.23;5.57;;;5.40;99.90;;;;;;4992282;28;20546;-75
2021/03/22 02:12:46;;;;;;;18.95;5.97;;;5.40;99.90;;;;;;4992321;28;20042;-75
2021/03/22 02:15:14;;;;;;;23.23;5.80;;;5.40;99.90;;;;;;4992643;28;20093;-76
2021/03/22 02:17:49;;;;;;;24.90;5.53;;;5.40;99.90;;;;;;4991837;28;20052;-75
2021/03/22 02:21:07;;;;;;;20.35;4.75;;;5.40;99.90;;;;;;4992354;28;20141;-76
2021/03/22 02:24:20;;;;;;;28.65;6.28;;;5.30;99.90;;;;;;4991954;28;20598;-77
2021/03/22 02:27:37;;;;;;;26.35;5.88;;;5.30;99.90;;;;;;4949456;28;20133;-77
2021/03/22 02:30:44;;;;;;;21.63;5.10;;;5.20;99.90;;;;;;4992104;28;20085;-77
2021/03/22 02:33:52;;;;;;;26.75;5.72;;;5.30;99.90;;;;;;4953827;28;20437;-76
2021/03/22 02:36:25;;;;;;;28.75;5.63;;;5.30;99.90;;;;;;4991599;28;20089;-76
2021/03/22 02:38:55;;;;;;;26.02;5.57;;;5.30;99.90;;;;;;4993727;28;20073;-77
2021/03/22 02:41:26;;;;;;;25.25;6.00;;;5.30;99.90;;;;;;4995879;28;20145;-76
2021/03/22 02:44:01;;;;;;;21.50;5.50;;;5.30;99.90;;;;;;4995715;28;20082;-76
2021/03/22 02:46:28;;;;;;;23.83;5.25;;;5.30;99.90;;;;;;4995299;28;20137;-76
2021/03/22 02:48:55;;;;;;;22.65;6.32;;;5.30;99.90;;;;;;4995594;28;20082;-75
2021/03/22 02:51:29;;;;;;;22.10;5.80;;;5.30;99.90;;;;;;4995792;28;20046;-77
2021/03/22 02:53:58;;;;;;;28.90;6.57;;;5.20;99.90;;;;;;5000864;28;20050;-77
2021/03/22 02:56:35;;;;;;;24.77;6.85;;;5.20;99.90;;;;;;5015533;28;20078;-76
2021/03/22 02:59:05;;;;;;;22.25;6.57;;;5.20;99.90;;;;;;5014288;28;20051;-76
2021/03/22 03:01:36;;;;;;;25.27;7.13;;;5.20;99.90;;;;;;4997111;28;20085;-77
2021/03/22 03:04:07;;;;;;;32.00;7.25;;;5.20;99.90;;;;;;4997616;28;20093;-77
2021/03/22 03:06:47;;;;;;;34.50;7.20;;;5.20;99.90;;;;;;4995431;28;20133;-77
2021/03/22 03:09:15;;;;;;;34.55;7.00;;;5.20;99.90;;;;;;4995624;28;20054;-77
2021/03/22 03:11:41;;;;;;;28.05;7.25;;;5.20;99.90;;;;;;4995518;28;22030;-77
2021/03/22 03:14:08;;;;;;;31.70;7.53;;;5.20;99.90;;;;;;4995026;28;20133;-77
2021/03/22 03:16:35;;;;;;;40.72;7.95;;;5.20;99.90;;;;;;4995032;28;20077;-76
2021/03/22 03:19:01;;;;;;;31.63;8.05;;;5.20;99.90;;;;;;4995175;28;20096;-77
2021/03/22 03:21:28;;;;;;;32.58;6.93;;;5.20;99.90;;;;;;4994968;28;20085;-77
2021/03/22 03:23:55;;;;;;;28.50;7.95;;;5.20;99.90;;;;;;4995019;28;20050;-76
2021/03/22 03:26:21;;;;;;;33.08;7.18;;;5.20;99.90;;;;;;4994609;28;20141;-76
2021/03/22 03:28:48;;;;;;;26.92;6.57;;;5.20;99.90;;;;;;4994774;28;20089;-76
2021/03/22 03:31:14;;;;;;;29.58;6.72;;;5.20;99.90;;;;;;4994791;28;20541;-77
2021/03/22 03:33:41;;;;;;;26.83;6.97;;;5.10;99.90;;;;;;4994459;28;20129;-76
2021/03/22 03:36:08;;;;;;;24.15;7.43;;;5.10;99.90;;;;;;4994533;28;20092;-75
2021/03/22 03:38:34;;;;;;;31.20;7.50;;;5.10;99.90;;;;;;4994386;28;20521;-76
2021/03/22 03:41:03;;;;;;;32.65;7.57;;;5.10;99.90;;;;;;4994361;28;20154;-77
2021/03/22 03:43:29;;;;;;;31.35;8.20;;;5.10;99.90;;;;;;4994399;28;20133;-78
2021/03/22 03:45:56;;;;;;;31.10;7.88;;;5.10;99.90;;;;;;4994989;28;20089;-77
2021/03/22 03:48:24;;;;;;;31.75;9.07;;;5.10;99.90;;;;;;4994473;28;20119;-77
2021/03/22 03:50:54;;;;;;;24.58;7.28;;;5.10;99.90;;;;;;4994507;28;20137;-77
2021/03/22 03:53:20;;;;;;;33.17;8.27;;;5.10;99.90;;;;;;4993848;28;20173;-76
2021/03/22 03:55:48;;;;;;;31.77;8.45;;;5.10;99.90;;;;;;4994374;28;20082;-76
2021/03/22 03:58:16;;;;;;;24.25;6.78;;;5.10;99.90;;;;;;4994112;28;20471;-76
2021/03/22 04:00:43;;;;;;;30.80;7.90;;;5.10;99.90;;;;;;4994130;28;20073;-78
2021/03/22 04:03:21;;;;;;;27.55;7.53;;;5.00;99.90;;;;;;4993947;28;20058;-75
2021/03/22 04:05:52;;;;;;;22.90;6.80;;;5.00;99.90;;;;;;4994393;28;20089;-76
2021/03/22 04:08:19;;;;;;;29.35;8.23;;;4.90;99.90;;;;;;4994032;28;20062;-76
2021/03/22 04:10:46;;;;;;;33.15;8.05;;;4.90;99.90;;;;;;4994706;28;20050;-76
2021/03/22 04:13:12;;;;;;;27.40;7.88;;;4.90;99.90;;;;;;4994440;28;20521;-76
2021/03/22 04:15:39;;;;;;;32.45;7.63;;;4.80;99.90;;;;;;4994556;28;20050;-76
2021/03/22 04:18:06;;;;;;;29.00;8.35;;;4.70;99.90;;;;;;4994217;28;20072;-76
2021/03/22 04:20:32;;;;;;;33.45;8.15;;;4.70;99.90;;;;;;4994015;28;20137;-76
2021/03/22 04:22:58;;;;;;;31.95;9.63;;;4.60;99.90;;;;;;4994496;28;20046;-75
2021/03/22 04:25:25;;;;;;;34.22;9.20;;;4.60;99.90;;;;;;4994387;28;20133;-75
2021/03/22 04:27:51;;;;;;;31.50;8.70;;;4.60;99.90;;;;;;4993035;28;20089;-76
2021/03/22 04:30:19;;;;;;;32.00;9.55;;;4.50;99.90;;;;;;4993539;28;20077;-77
2021/03/22 04:32:46;;;;;;;26.83;9.02;;;4.50;99.90;;;;;;4995215;28;20129;-77
2021/03/22 04:35:13;;;;;;;33.35;9.77;;;4.40;99.90;;;;;;4994601;28;20093;-77
2021/03/22 04:37:39;;;;;;;25.63;9.88;;;4.50;99.90;;;;;;4994323;28;20097;-77
2021/03/22 04:40:08;;;;;;;30.95;9.55;;;4.50;99.90;;;;;;4993477;28;20497;-76
2021/03/22 04:42:35;;;;;;;34.05;10.70;;;4.50;99.90;;;;;;4993201;28;20129;-76
2021/03/22 04:45:01;;;;;;;43.20;10.05;;;4.50;99.90;;;;;;5028989;23;20099;-76
2021/03/22 04:47:28;;;;;;;33.35;9.32;;;4.50;99.90;;;;;;5030489;28;20108;-79
2021/03/22 04:49:55;;;;;;;36.47;10.65;;;4.50;99.90;;;;;;5037970;28;20057;-79
2021/03/22 04:52:21;;;;;;;28.40;9.50;;;4.50;99.90;;;;;;5038730;28;20077;-78
2021/03/22 04:54:47;;;;;;;31.67;9.32;;;4.60;99.90;;;;;;5034693;28;20053;-76
2021/03/22 04:57:25;;;;;;;32.78;9.93;;;4.60;99.90;;;;;;5033235;28;20136;-77
2021/03/22 04:59:52;;;;;;;25.58;9.02;;;4.60;99.90;;;;;;5034829;28;20072;-77
2021/03/22 05:02:19;;;;;;;27.83;9.10;;;4.60;99.90;;;;;;5033544;28;20108;-77
2021/03/22 05:04:45;;;;;;;31.55;9.32;;;4.60;99.90;;;;;;5035462;28;20084;-77
2021/03/22 05:07:12;;;;;;;28.13;8.57;;;4.60;99.90;;;;;;5033849;28;20060;-78
2021/03/22 05:09:39;;;;;;;34.42;9.63;;;4.60;99.90;;;;;;5035423;28;20053;-78
2021/03/22 05:12:06;;;;;;;28.23;8.48;;;4.60;99.90;;;;;;5035598;28;20133;-76
2021/03/22 05:14:33;;;;;;;22.80;7.57;;;4.60;99.90;;;;;;5034330;28;20049;-77
2021/03/22 05:16:59;;;;;;;26.25;8.30;;;4.60;99.90;;;;;;5032628;28;20415;-77
2021/03/22 05:19:26;;;;;;;24.48;7.63;;;4.70;99.90;;;;;;5032723;28;20132;-78
2021/03/22 05:21:55;;;;;;;27.52;8.38;;;4.70;99.90;;;;;;5033817;28;20135;-78
2021/03/22 05:24:22;;;;;;;21.55;8.00;;;4.70;99.90;;;;;;5033771;28;20132;-77
2021/03/22 05:26:49;;;;;;;30.13;7.88;;;4.80;99.90;;;;;;5034115;28;20056;-77
2021/03/22 05:29:16;;;;;;;21.75;7.97;;;4.80;99.90;;;;;;5033464;28;20049;-77
2021/03/22 05:31:42;;;;;;;31.48;8.88;;;4.80;99.90;;;;;;5033002;28;20060;-77
2021/03/22 05:34:08;;;;;;;29.85;8.05;;;4.90;99.90;;;;;;5032398;28;20469;-77
2021/03/22 05:36:35;;;;;;;25.83;9.35;;;4.90;99.90;;;;;;5033179;28;20563;-76
2021/03/22 05:39:02;;;;;;;31.52;8.43;;;4.90;99.90;;;;;;5039153;28;20185;-78
2021/03/22 05:41:30;;;;;;;31.17;9.13;;;4.90;99.90;;;;;;5040510;28;20088;-77
2021/03/22 05:44:07;;;;;;;26.38;8.63;;;4.90;99.90;;;;;;5033153;28;20045;-78
2021/03/22 05:46:42;;;;;;;28.90;10.15;;;5.00;99.90;;;;;;5032722;28;20085;-77
2021/03/22 05:49:27;;;;;;;32.13;10.50;;;5.00;99.90;;;;;;5032446;28;20075;-77
2021/03/22 05:52:10;;;;;;;34.13;10.35;;;5.00;99.90;;;;;;5032618;28;20053;-76
2021/03/22 05:55:02;;;;;;;37.15;9.85;;;5.00;99.90;;;;;;5032810;28;20053;-77
2021/03/22 05:57:50;;;;;;;33.80;10.20;;;5.10;99.90;;;;;;5032301;28;20056;-78
2021/03/22 06:00:26;;;;;;;33.55;10.95;;;5.10;99.90;;;;;;5017374;28;20060;-77
2021/03/22 06:02:59;;;;;;;29.90;10.18;;;5.10;99.90;;;;;;5034778;28;20053;-78
2021/03/22 06:05:39;;;;;;;29.25;9.80;;;5.10;99.90;;;;;;5035347;28;20139;-77
2021/03/22 06:08:21;;;;;;;33.90;10.68;;;5.10;99.90;;;;;;5035083;28;20136;-78
2021/03/22 06:10:51;;;;;;;29.30;10.50;;;5.10;99.90;;;;;;5033630;28;20056;-78
2021/03/22 06:13:22;;;;;;;34.90;10.20;;;5.10;99.90;;;;;;5034206;28;20061;-77
2021/03/22 06:15:53;;;;;;;28.52;10.13;;;5.10;99.90;;;;;;5035784;28;20057;-77
2021/03/22 06:18:24;;;;;;;36.80;10.35;;;5.10;99.90;;;;;;5036092;28;20132;-77
2021/03/22 06:20:54;;;;;;;37.63;10.55;;;5.20;99.90;;;;;;5036859;28;20053;-77
2021/03/22 06:23:34;;;;;;;31.55;11.32;;;5.20;99.90;;;;;;5036758;28;20442;-78
2021/03/22 06:26:01;;;;;;;30.17;10.45;;;5.20;99.90;;;;;;5039087;28;20132;-78
2021/03/22 06:28:32;;;;;;;41.30;10.90;;;5.20;99.90;;;;;;5036985;28;20141;-78
2021/03/22 06:31:03;;;;;;;29.10;11.80;;;5.30;99.90;;;;;;5038476;28;20148;-79
2021/03/22 06:33:35;;;;;;;36.20;10.27;;;5.40;99.90;;;;;;5043227;28;20084;-79
2021/03/22 06:36:02;;;;;;;32.17;10.77;;;5.40;99.90;;;;;;5043509;28;20489;-79
2021/03/22 06:38:28;;;;;;;28.40;10.98;;;5.50;99.90;;;;;;5041171;28;20117;-79
2021/03/22 06:40:54;;;;;;;35.83;10.32;;;5.50;99.90;;;;;;5041060;28;20045;-78
2021/03/22 06:43:23;;;;;;;29.98;10.02;;;5.60;99.90;;;;;;5039158;28;20046;-78
2021/03/22 06:45:53;;;;;;;28.88;10.32;;;5.60;99.90;;;;;;5036920;28;20088;-78
2021/03/22 06:48:27;;;;;;;32.85;14.23;;;5.80;99.90;;;;;;5038190;28;20136;-77
2021/03/22 06:51:14;;;;;;;23.85;9.85;;;6.00;99.90;;;;;;5037236;28;20517;-78
2021/03/22 06:53:43;;;;;;;31.00;10.18;;;6.00;99.90;;;;;;5037148;28;20049;-77
2021/03/22 06:56:15;;;;;;;34.75;10.35;;;6.00;99.90;;;;;;5037315;28;20076;-77
2021/03/22 06:58:44;;;;;;;31.77;12.30;;;6.00;99.90;;;;;;5037861;28;20050;-78
2021/03/22 07:01:23;;;;;;;35.72;11.02;;;5.90;99.90;;;;;;5036959;28;20125;-77
2021/03/22 07:03:51;;;;;;;27.58;12.13;;;5.90;99.90;;;;;;5036791;28;20099;-77
2021/03/22 07:06:19;;;;;;;31.98;12.60;;;6.00;99.90;;;;;;5035434;28;20049;-77
2021/03/22 07:08:46;;;;;;;28.20;12.68;;;6.00;99.90;;;;;;5035941;28;20132;-79
2021/03/22 07:11:16;;;;;;;30.95;13.55;;;6.10;99.90;;;;;;5036510;28;20053;-78
2021/03/22 07:13:52;;;;;;;33.97;14.35;;;6.10;99.90;;;;;;5036935;28;20050;-78
2021/03/22 07:16:21;;;;;;;38.72;14.23;;;6.20;99.90;;;;;;5036701;28;20076;-78
2021/03/22 07:19:12;;;;;;;30.80;13.65;;;6.20;99.90;;;;;;5036451;28;20104;-79
2021/03/22 07:21:48;;;;;;;35.17;13.13;;;6.30;99.90;;;;;;5037396;28;20429;-79
2021/03/22 07:24:18;;;;;;;25.65;11.98;;;6.30;99.90;;;;;;5038042;28;20124;-79
2021/03/22 07:27:19;;;;;;;39.75;15.23;;;6.20;99.90;;;;;;5037073;28;20214;-79
2021/03/22 07:30:20;;;;;;;35.75;13.35;;;6.30;99.90;;;;;;5031323;28;20053;-78
2021/03/22 07:32:51;;;;;;;33.20;12.90;;;6.30;99.90;;;;;;5033366;28;20049;-79
2021/03/22 07:35:59;;;;;;;34.60;16.38;;;6.40;99.90;;;;;;5038025;28;20053;-79
2021/03/22 07:38:59;;;;;;;32.30;17.10;;;6.40;99.90;;;;;;5039143;28;20479;-79
2021/03/22 07:41:35;;;;;;;35.05;16.52;;;6.50;99.90;;;;;;5040147;28;20422;-79
2021/03/22 07:44:20;;;;;;;34.22;16.38;;;6.50;99.90;;;;;;5039165;28;20523;-79
2021/03/22 07:46:58;;;;;;;33.22;14.68;;;6.50;99.90;;;;;;5039600;28;20135;-79
2021/03/22 07:49:40;;;;;;;26.27;11.65;;;6.50;99.90;;;;;;5040333;28;20049;-79
2021/03/22 07:52:20;;;;;;;26.13;13.50;;;6.50;99.90;;;;;;5039359;28;20053;-79
2021/03/22 07:54:55;;;;;;;36.70;13.30;;;6.50;99.90;;;;;;5039694;28;20049;-79
2021/03/22 07:57:35;;;;;;;30.95;15.05;;;6.40;99.90;;;;;;5038458;28;20083;-80
2021/03/22 08:00:12;;;;;;;31.75;12.20;;;6.50;99.90;;;;;;5026839;28;20129;-80
2021/03/22 08:02:57;;;;;;;29.70;11.35;;;6.50;99.90;;;;;;5019208;28;20060;-80
2021/03/22 08:05:33;;;;;;;26.55;10.70;;;6.60;99.90;;;;;;5020733;28;20054;-79
2021/03/22 08:08:02;;;;;;;21.75;9.45;;;6.70;99.90;;;;;;5019592;28;20576;-80
2021/03/22 08:10:49;;;;;;;22.00;9.77;;;6.70;99.90;;;;;;5020109;28;20049;-79
2021/03/22 08:13:28;;;;;;;21.48;9.43;;;6.80;99.90;;;;;;5019697;28;20050;-79
2021/03/22 08:16:05;;;;;;;25.17;9.85;;;6.80;99.90;;;;;;5018833;28;20131;-77
2021/03/22 08:18:36;;;;;;;31.20;10.07;;;6.80;99.90;;;;;;5016622;28;20088;-80
2021/03/22 08:21:09;;;;;;;20.73;8.20;;;7.00;99.90;;;;;;5017635;28;20140;-79
2021/03/22 08:23:48;;;;;;;24.45;8.82;;;7.00;99.90;;;;;;5029756;28;20133;-79
2021/03/22 08:26:21;;;;;;;23.02;8.60;;;7.00;99.90;;;;;;5010062;28;20100;-79
2021/03/22 08:28:59;;;;;;;25.00;9.32;;;7.00;99.90;;;;;;5016959;28;20156;-79
2021/03/22 08:31:33;;;;;;;23.25;8.90;;;6.90;99.90;;;;;;5009916;28;20081;-80
2021/03/22 08:34:04;;;;;;;19.02;7.97;;;6.90;99.90;;;;;;5015160;28;20085;-80
2021/03/22 08:36:42;;;;;;;21.30;8.57;;;7.00;99.90;;;;;;5016818;28;20056;-80
2021/03/22 08:39:20;;;;;;;23.13;9.13;;;7.50;99.90;;;;;;5016853;28;20167;-80
2021/03/22 08:41:55;;;;;;;24.95;8.20;;;8.20;99.90;;;;;;5016083;28;20129;-78
2021/03/22 08:44:26;;;;;;;21.30;8.23;;;8.40;99.90;;;;;;5016863;28;20056;-78
2021/03/22 08:47:03;;;;;;;19.23;7.88;;;9.00;99.90;;;;;;5016357;28;20050;-81
2021/03/22 08:49:44;;;;;;;20.08;8.05;;;9.30;99.90;;;;;;5016043;28;20129;-79
2021/03/22 08:52:20;;;;;;;19.30;8.20;;;9.50;99.90;;;;;;5017199;28;20157;-79
2021/03/22 08:54:47;;;;;;;25.15;7.50;;;9.50;99.90;;;;;;5015871;28;20050;-79
2021/03/22 08:57:24;;;;;;;13.35;6.40;;;9.40;99.90;;;;;;5015996;28;20077;-79
2021/03/22 08:59:51;;;;;;;15.50;6.93;;;9.30;99.90;;;;;;5016820;28;20041;-80
2021/03/22 09:02:26;;;;;;;18.10;8.38;;;9.60;99.90;;;;;;5018470;28;20076;-80
2021/03/22 09:04:54;;;;;;;19.00;7.05;;;10.00;99.90;;;;;;5017557;28;20108;-80
2021/03/22 09:07:32;;;;;;;11.48;5.88;;;10.50;99.90;;;;;;5016576;28;20131;-80
2021/03/22 09:10:21;;;;;;;13.77;6.72;;;10.40;99.90;;;;;;5017855;28;20072;-79
2021/03/22 09:12:49;;;;;;;12.27;6.43;;;10.20;99.90;;;;;;5017935;28;20050;-78
2021/03/22 09:15:22;;;;;;;12.65;7.20;;;10.00;99.90;;;;;;5017394;28;20117;-79
2021/03/22 09:18:20;;;;;;;12.02;6.30;;;9.90;99.90;;;;;;5016737;28;20145;-79
2021/03/22 09:21:17;;;;;;;18.27;6.93;;;9.90;99.90;;;;;;4972945;28;20137;-79
2021/03/22 09:23:45;;;;;;;14.40;6.65;;;9.70;99.90;;;;;;5015754;28;20050;-80
2021/03/22 09:26:12;;;;;;;15.32;5.93;;;9.50;99.90;;;;;;5015589;28;20053;-78
2021/03/22 09:28:48;;;;;;;16.10;6.25;;;9.40;99.90;;;;;;5014327;28;20164;-79
2021/03/22 09:31:37;;;;;;;14.50;6.78;;;9.20;99.90;;;;;;5016653;28;20045;-78
2021/03/22 09:34:25;;;;;;;12.45;5.75;;;9.30;99.90;;;;;;5016950;28;20093;-78
2021/03/22 09:36:53;;;;;;;16.75;5.68;;;9.20;99.90;;;;;;5016276;28;20454;-78
2021/03/22 09:39:46;;;;;;;14.05;6.28;;;9.20;99.90;;;;;;5016277;28;20136;-79
2021/03/22 09:42:23;;;;;;;17.38;6.90;;;8.90;99.90;;;;;;5006590;28;20153;-79
2021/03/22 09:45:16;;;;;;;14.77;7.13;;;8.70;99.90;;;;;;5016601;28;20046;-78
2021/03/22 09:47:45;;;;;;;12.48;5.32;;;8.50;99.90;;;;;;5018424;28;20050;-78
2021/03/22 09:50:24;;;;;;;14.90;6.40;;;8.40;99.90;;;;;;5020822;28;20125;-77
2021/03/22 09:53:19;;;;;;;16.33;6.57;;;8.40;99.90;;;;;;5018415;28;20061;-78
2021/03/22 09:55:57;;;;;;;14.07;6.53;;;8.40;99.90;;;;;;5019873;28;20147;-78
2021/03/22 09:58:32;;;;;;;15.73;6.28;;;8.40;99.90;;;;;;5017434;28;20264;-77
2021/03/22 10:01:03;;;;;;;13.70;5.63;;;8.30;99.90;;;;;;5020812;28;20145;-79
2021/03/22 10:03:36;;;;;;;10.75;5.60;;;8.30;99.90;;;;;;5020544;28;20068;-78
2021/03/22 10:06:06;;;;;;;13.02;6.05;;;8.40;99.90;;;;;;5020208;28;20141;-79
2021/03/22 10:08:35;;;;;;;13.57;5.40;;;8.40;99.90;;;;;;5019481;28;20133;-78
2021/03/22 10:11:04;;;;;;;11.07;5.60;;;8.50;99.90;;;;;;5020341;28;20129;-77
2021/03/22 10:13:34;;;;;;;15.60;5.40;;;8.50;99.90;;;;;;5020098;28;20132;-78
2021/03/22 10:16:08;;;;;;;10.93;5.18;;;8.50;99.90;;;;;;5021057;28;20536;-78
2021/03/22 10:18:40;;;;;;;11.82;5.72;;;8.40;99.90;;;;;;5019747;28;20064;-78
2021/03/22 10:21:11;;;;;;;10.27;5.70;;;8.40;99.90;;;;;;5019033;28;20192;-79
2021/03/22 10:23:49;;;;;;;11.32;5.15;;;8.40;99.90;;;;;;5020477;28;20069;-78
2021/03/22 10:26:21;;;;;;;13.75;5.75;;;8.50;99.90;;;;;;5021705;28;20510;-78
2021/03/22 10:28:48;;;;;;;14.90;6.18;;;8.50;99.90;;;;;;5020790;28;20613;-77
2021/03/22 10:31:22;;;;;;;12.77;5.47;;;8.60;99.90;;;;;;5015075;28;20462;-78
2021/03/22 10:33:51;;;;;;;11.10;5.32;;;8.70;99.90;;;;;;5020738;28;20078;-79
2021/03/22 10:36:30;;;;;;;11.57;6.68;;;8.80;99.90;;;;;;5019562;28;20094;-79
2021/03/22 10:38:58;;;;;;;11.18;6.10;;;8.90;99.90;;;;;;5017196;28;20050;-77
2021/03/22 10:41:33;;;;;;;14.95;6.00;;;9.00;99.90;;;;;;5021030;28;20042;-78
2021/03/22 10:44:02;;;;;;;10.90;5.57;;;9.10;99.90;;;;;;5011168;28;20077;-78
2021/03/22 10:46:31;;;;;;;10.93;5.60;;;9.10;99.90;;;;;;5008873;28;20128;-78
2021/03/22 10:49:08;;;;;;;8.68;5.03;;;9.10;99.90;;;;;;5021317;23;20841;-75
2021/03/22 10:51:37;;;;;;;8.90;5.25;;;9.10;99.90;;;;;;5001248;28;20050;-75
2021/03/22 10:54:06;;;;;;;10.20;5.20;;;9.10;99.90;;;;;;4992247;28;20410;-74
2021/03/22 10:56:37;;;;;;;10.85;5.43;;;9.10;99.90;;;;;;4993391;28;20060;-76
2021/03/22 10:59:08;;;;;;;10.77;5.03;;;9.00;99.90;;;;;;4991432;28;20138;-76
2021/03/22 11:01:37;;;;;;;12.75;6.22;;;8.90;99.90;;;;;;4994011;28;20078;-75
2021/03/22 11:04:05;;;;;;;12.80;5.78;;;8.90;99.90;;;;;;4994696;28;20056;-76
2021/03/22 11:06:36;;;;;;;17.17;7.38;;;8.80;99.90;;;;;;4993336;28;20132;-78
2021/03/22 11:09:08;;;;;;;11.90;5.60;;;8.80;99.90;;;;;;4992511;28;20132;-74
2021/03/22 11:11:35;;;;;;;13.95;5.95;;;8.80;99.90;;;;;;4993688;28;20058;-75
2021/03/22 11:14:05;;;;;;;9.48;5.55;;;8.90;99.90;;;;;;4993762;28;20463;-77
2021/03/22 11:16:35;;;;;;;9.60;5.35;;;8.90;99.90;;;;;;4993283;28;20050;-76
2021/03/22 11:19:11;;;;;;;14.77;5.97;;;9.00;99.90;;;;;;4973490;28;20062;-75
2021/03/22 11:21:40;;;;;;;12.27;6.28;;;8.90;99.90;;;;;;4996433;28;20065;-75
2021/03/22 11:24:16;;;;;;;12.73;6.40;;;8.80;99.90;;;;;;4992978;28;20378;-76
2021/03/22 11:26:56;;;;;;;10.85;5.72;;;8.90;99.90;;;;;;4993036;28;20133;-75
2021/03/22 11:29:24;;;;;;;8.35;5.13;;;9.00;99.90;;;;;;4993035;28;20144;-75
2021/03/22 11:31:57;;;;;;;11.32;4.90;;;9.10;99.90;;;;;;4996925;28;20053;-73
2021/03/22 11:34:29;;;;;;;10.15;5.03;;;9.10;99.90;;;;;;4995840;28;20474;-74
2021/03/22 11:37:03;;;;;;;10.38;5.22;;;9.00;99.90;;;;;;4993072;28;20546;-74
2021/03/22 11:39:34;;;;;;;11.23;5.03;;;9.10;99.90;;;;;;4993174;28;20081;-74
2021/03/22 11:42:08;;;;;;;8.07;4.40;;;9.20;99.90;;;;;;4994449;28;20054;-73
2021/03/22 11:44:37;;;;;;;11.90;4.30;;;9.20;99.90;;;;;;4993789;28;20146;-75
2021/03/22 11:47:43;;;;;;;7.75;4.05;;;9.30;99.90;;;;;;4993594;28;20061;-74
2021/03/22 11:50:33;;;;;;;10.90;4.13;;;9.30;99.90;;;;;;5004651;28;20050;-75
2021/03/22 11:53:02;;;;;;;8.90;4.20;;;9.20;99.90;;;;;;5008540;28;20053;-75
2021/03/22 11:55:33;;;;;;;10.68;4.72;;;9.10;99.90;;;;;;5005967;28;20058;-74
2021/03/22 11:57:59;;;;;;;14.35;5.13;;;9.10;99.90;;;;;;4992572;28;20046;-76
2021/03/22 12:00:28;;;;;;;12.90;4.90;;;9.10;99.90;;;;;;4991563;28;20054;-75
2021/03/22 12:02:59;;;;;;;13.65;4.88;;;9.20;99.90;;;;;;4991311;28;20085;-76
2021/03/22 12:05:28;;;;;;;10.85;4.65;;;9.10;99.90;;;;;;4991840;28;20072;-76
2021/03/22 12:07:55;;;;;;;14.70;5.07;;;9.10;99.90;;;;;;4990539;28;20065;-75
2021/03/22 12:10:27;;;;;;;23.10;5.70;;;9.20;99.90;;;;;;4990170;28;20077;-73
2021/03/22 12:12:55;;;;;;;14.23;5.65;;;9.30;99.90;;;;;;4991077;28;20146;-74
2021/03/22 12:15:23;;;;;;;11.90;5.13;;;9.40;99.90;;;;;;4991586;28;20870;-75
2021/03/22 12:17:54;;;;;;;10.55;5.80;;;9.50;99.90;;;;;;4990037;28;20100;-74
2021/03/22 12:20:23;;;;;;;11.05;4.85;;;9.50;99.90;;;;;;4987321;28;20065;-74
2021/03/22 12:22:50;;;;;;;8.60;4.60;;;9.50;99.90;;;;;;4989125;28;20126;-74
2021/03/22 12:25:20;;;;;;;11.90;5.03;;;9.40;99.90;;;;;;4989003;28;20061;-75
2021/03/22 12:27:46;;;;;;;10.75;5.07;;;9.30;99.90;;;;;;4989340;28;20046;-76
2021/03/22 12:30:15;;;;;;;10.35;4.95;;;9.20;99.90;;;;;;4990863;28;20046;-76
2021/03/22 12:32:44;;;;;;;9.43;5.10;;;9.20;99.90;;;;;;4989630;28;20052;-75
2021/03/22 12:35:17;;;;;;;14.73;6.38;;;9.30;99.90;;;;;;4991989;28;20050;-77
2021/03/22 12:37:44;;;;;;;;;;;9.30;99.90;;;;;;4988232;28;20042;-76
2021/03/22 12:40:14;;;;;;;12.70;5.55;;;9.40;99.90;;;;;;4990548;28;19921;-74
2021/03/22 12:42:42;;;;;;;14.15;5.13;;;9.40;99.90;;;;;;4989621;28;20038;-75
2021/03/22 12:45:19;;;;;;;11.73;5.05;;;9.50;99.90;;;;;;4991830;28;20042;-74
2021/03/22 12:47:45;;;;;;;15.73;5.60;;;9.50;99.90;;;;;;4988549;28;20541;-75
2021/03/22 12:50:22;;;;;;;9.73;4.82;;;9.50;99.90;;;;;;4990047;28;20463;-74
2021/03/22 12:52:50;;;;;;;9.05;5.03;;;9.50;99.90;;;;;;4988002;28;20084;-74
2021/03/22 12:55:17;;;;;;;8.88;4.82;;;9.60;99.90;;;;;;4987125;28;20058;-73
2021/03/22 12:57:43;;;;;;;9.57;4.97;;;9.70;99.90;;;;;;4989887;28;20094;-75
2021/03/22 13:00:12;;;;;;;14.63;6.47;;;9.80;99.90;;;;;;4991074;28;20121;-74
2021/03/22 13:02:40;;;;;;;11.52;5.47;;;9.90;99.90;;;;;;4991549;28;20582;-76
2021/03/22 13:05:14;;;;;;;11.25;4.63;;;9.90;99.90;;;;;;4990506;28;20057;-73
2021/03/22 13:07:40;;;;;;;8.02;4.93;;;9.90;99.90;;;;;;4986199;28;20058;-75
2021/03/22 13:10:08;;;;;;;9.82;4.50;;;9.80;99.90;;;;;;4990806;28;20050;-75
2021/03/22 13:12:35;;;;;;;9.73;4.25;;;9.90;99.90;;;;;;4990601;28;20129;-74